Time;durP1;ratioP1;P1;durP2;ratioP2;P2;SDS_P1;SDS_P2;PMS_P1;PMS_P2;Temp;Humidity;BMP_temperature;BMP_pressure;BME280_temperature;BME280_humidity;BME280_pressure;Samples;Min_cycle;Max_cycle;Signal;HPM_P1;HPM_P2
2023/04/11 00:02:11;;;;;;;8.20;7.40;;;9.30;99.90;;;9.23;65.54;94732.72;5076688;28;20477;-56
2023/04/11 00:04:38;;;;;;;7.60;6.80;;;9.30;99.90;;;9.23;65.36;94734.50;5075967;28;20453;-60
2023/04/11 00:07:08;;;;;;;10.97;8.30;;;9.30;99.90;;;9.22;65.62;94728.44;5076867;28;21016;-57
2023/04/11 00:09:35;;;;;;;7.80;7.10;;;9.30;99.90;;;9.22;65.83;94723.19;5075624;28;20454;-61
2023/04/11 00:12:03;;;;;;;8.50;7.47;;;9.30;99.90;;;9.22;65.80;94717.13;5076058;28;20478;-57
2023/04/11 00:14:33;;;;;;;16.37;7.97;;;9.20;99.90;;;9.22;65.66;94715.31;5075273;28;20458;-56
2023/04/11 00:17:00;;;;;;;9.73;7.70;;;9.30;99.90;;;9.23;65.83;94710.91;5076466;28;20560;-60
2023/04/11 00:19:28;;;;;;;10.63;7.90;;;9.30;99.90;;;9.23;65.76;94716.97;5077445;28;20573;-60
2023/04/11 00:21:57;;;;;;;8.67;7.77;;;9.30;99.90;;;9.21;65.33;94712.84;5074269;28;20875;-61
2023/04/11 00:24:25;;;;;;;11.43;8.70;;;9.30;99.90;;;9.19;65.76;94720.03;5068770;28;20449;-54
2023/04/11 00:26:53;;;;;;;9.00;8.10;;;9.20;99.90;;;9.18;66.45;94715.72;5077998;28;20463;-55
2023/04/11 00:29:20;;;;;;;10.70;8.50;;;9.20;99.90;;;9.14;65.78;94723.88;5077418;28;20450;-56
2023/04/11 00:31:47;;;;;;;9.30;8.37;;;9.20;99.90;;;9.11;65.64;94716.28;5073687;28;21018;-57
2023/04/11 00:34:15;;;;;;;10.13;8.77;;;9.20;99.90;;;9.09;65.76;94714.75;5077222;28;20455;-59
2023/04/11 00:36:42;;;;;;;9.07;8.17;;;9.10;99.90;;;9.09;65.81;94717.34;5070508;28;20453;-60
2023/04/11 00:39:09;;;;;;;11.17;9.03;;;9.10;99.90;;;9.06;66.10;94713.22;5077572;28;20490;-56
2023/04/11 00:41:38;;;;;;;9.50;8.50;;;9.10;99.90;;;9.07;66.10;94719.28;5075314;28;20529;-58
2023/04/11 00:44:06;;;;;;;14.17;10.13;;;9.10;99.90;;;9.05;66.47;94710.75;5075047;28;20455;-60
2023/04/11 00:46:34;;;;;;;9.30;8.30;;;9.10;99.90;;;9.06;66.08;94712.38;5076271;28;20458;-60
2023/04/11 00:49:02;;;;;;;8.97;7.70;;;9.10;99.90;;;9.06;66.32;94705.34;5072150;28;20458;-60
2023/04/11 00:51:29;;;;;;;9.73;8.03;;;9.10;99.90;;;9.07;66.09;94711.44;5074158;28;20799;-56
2023/04/11 00:53:56;;;;;;;8.77;7.80;;;9.10;99.90;;;9.06;66.12;94710.59;5076045;28;20494;-58
2023/04/11 00:56:23;;;;;;;10.47;8.80;;;9.10;99.90;;;9.07;66.60;94709.63;5072309;28;20463;-57
2023/04/11 00:58:52;;;;;;;11.40;8.80;;;9.10;99.90;;;9.08;66.09;94720.97;5078328;28;20490;-56
2023/04/11 01:01:22;;;;;;;11.93;8.50;;;9.10;99.90;;;9.08;66.41;94710.47;5076466;28;20954;-60
2023/04/11 01:03:49;;;;;;;11.33;9.23;;;9.10;99.90;;;9.07;66.52;94714.06;5076701;28;20475;-56
2023/04/11 01:06:18;;;;;;;11.00;9.30;;;9.10;99.90;;;9.07;66.61;94714.06;5077984;28;20496;-55
2023/04/11 01:08:46;;;;;;;10.80;8.43;;;9.10;99.90;;;9.07;66.28;94714.06;5080011;28;20985;-59
2023/04/11 01:11:15;;;;;;;11.53;8.43;;;9.10;99.90;;;9.08;66.25;94713.09;5080296;28;20453;-57
2023/04/11 01:13:42;;;;;;;8.83;7.93;;;9.10;99.90;;;9.07;66.38;94714.88;5080005;28;20521;-60
2023/04/11 01:16:11;;;;;;;10.33;8.13;;;9.10;99.90;;;9.07;66.49;94714.88;5080495;28;20450;-60
2023/04/11 01:18:39;;;;;;;9.60;8.33;;;9.10;99.90;;;9.09;66.31;94726.09;5078690;28;20490;-57
2023/04/11 01:21:08;;;;;;;10.40;8.83;;;9.10;99.90;;;9.10;66.61;94719.03;5079514;28;20451;-60
2023/04/11 01:23:36;;;;;;;8.53;7.47;;;9.10;99.90;;;9.11;66.54;94724.13;5078763;28;20474;-56
2023/04/11 01:26:04;;;;;;;8.87;7.83;;;9.10;99.90;;;9.12;66.19;94722.34;5079578;28;20835;-56
2023/04/11 01:28:31;;;;;;;13.70;9.90;;;9.20;99.90;;;9.13;66.56;94718.75;5077966;28;20475;-57
2023/04/11 01:30:59;;;;;;;10.30;8.10;;;9.20;99.90;;;9.14;66.39;94717.81;5079083;28;20454;-60
2023/04/11 01:33:26;;;;;;;16.50;8.70;;;9.20;99.90;;;9.14;66.29;94716.00;5079583;28;20547;-60
2023/04/11 01:35:53;;;;;;;11.83;8.70;;;9.20;99.90;;;9.15;66.25;94712.41;5074898;28;21025;-55
2023/04/11 01:38:21;;;;;;;10.30;9.17;;;9.20;99.90;;;9.16;66.29;94708.00;5076373;28;20467;-57
2023/04/11 01:40:49;;;;;;;11.30;9.10;;;9.20;99.90;;;9.17;66.26;94707.03;5075722;28;20462;-57
2023/04/11 01:43:17;;;;;;;12.67;9.50;;;9.20;99.90;;;9.17;66.21;94714.91;5079237;28;20469;-56
2023/04/11 01:45:44;;;;;;;9.87;8.53;;;9.20;99.90;;;9.15;66.39;94706.31;5080950;28;20491;-57
2023/04/11 01:48:12;;;;;;;11.00;9.10;;;9.20;99.90;;;9.15;66.61;94712.41;5080516;28;20545;-60
2023/04/11 01:50:40;;;;;;;11.13;8.80;;;9.20;99.90;;;9.14;66.34;94710.75;5079353;28;20527;-57
2023/04/11 01:53:07;;;;;;;11.03;9.10;;;9.20;99.90;;;9.14;66.16;94710.75;5078182;28;20509;-60
2023/04/11 01:55:34;;;;;;;11.47;8.70;;;9.20;99.90;;;9.15;66.41;94701.06;5080159;28;20473;-60
2023/04/11 01:58:03;;;;;;;11.57;8.93;;;9.20;99.90;;;9.14;66.38;94699.44;5077018;28;20469;-56
2023/04/11 02:00:31;;;;;;;10.87;9.30;;;9.20;99.90;;;9.15;66.33;94698.44;5075908;28;20489;-61
2023/04/11 02:02:58;;;;;;;11.33;9.80;;;9.20;99.90;;;9.15;66.09;94693.22;5078178;28;20558;-60
2023/04/11 02:05:26;;;;;;;11.40;9.07;;;9.20;99.90;;;9.14;66.42;94691.56;5079382;28;20459;-60
2023/04/11 02:07:53;;;;;;;11.13;8.87;;;9.20;99.90;;;9.13;66.17;94692.53;5074550;28;20473;-56
2023/04/11 02:10:20;;;;;;;14.30;10.63;;;9.20;99.90;;;9.12;66.12;94696.09;5078379;28;20454;-58
2023/04/11 02:12:47;;;;;;;12.73;10.13;;;9.20;99.90;;;9.11;66.68;94699.72;5079045;28;20482;-60
2023/04/11 02:15:16;;;;;;;9.63;8.43;;;9.20;99.90;;;9.09;66.27;94697.22;5079281;28;20455;-53
2023/04/11 02:17:45;;;;;;;13.80;10.30;;;9.10;99.90;;;9.09;66.14;94701.63;5079377;28;20470;-56
2023/04/11 02:20:13;;;;;;;12.90;10.60;;;9.10;99.90;;;9.08;66.24;94705.22;5077489;28;21108;-60
2023/04/11 02:22:40;;;;;;;11.37;9.50;;;9.10;99.90;;;9.06;66.55;94699.25;5076669;28;20554;-60
2023/04/11 02:25:08;;;;;;;12.53;9.63;;;9.10;99.90;;;9.06;66.42;94701.88;5079435;28;20538;-60
2023/04/11 02:27:36;;;;;;;15.30;10.00;;;9.10;99.90;;;9.03;66.36;94702.16;5079592;28;20839;-60
2023/04/11 02:30:04;;;;;;;12.27;10.57;;;9.10;99.90;;;8.99;66.62;94701.59;5076832;28;20451;-56
2023/04/11 02:32:34;;;;;;;13.77;10.57;;;9.10;99.90;;;8.96;66.27;94697.44;5077035;28;20481;-57
2023/04/11 02:35:03;;;;;;;13.97;11.20;;;9.00;99.90;;;8.94;66.17;94695.94;5073306;28;20445;-61
2023/04/11 02:37:31;;;;;;;17.03;11.90;;;9.00;99.90;;;8.92;66.20;94705.72;5069968;28;20476;-55
2023/04/11 02:39:58;;;;;;;14.57;10.80;;;9.00;99.90;;;8.88;66.29;94694.66;5073662;28;20570;-59
2023/04/11 02:42:25;;;;;;;15.23;10.67;;;8.90;99.90;;;8.84;66.77;94693.28;5068954;28;20484;-60
2023/04/11 02:44:55;;;;;;;16.50;10.73;;;8.90;99.90;;;8.82;66.53;94699.63;5078869;28;20531;-57
2023/04/11 02:47:22;;;;;;;19.13;10.93;;;8.90;99.90;;;8.81;66.26;94690.91;5075396;28;20477;-56
2023/04/11 02:49:51;;;;;;;19.13;12.60;;;8.90;99.90;;;8.80;66.45;94694.53;5069182;28;20804;-54
2023/04/11 02:52:18;;;;;;;16.37;12.43;;;8.90;99.90;;;8.79;66.30;94688.44;5074698;28;20483;-57
2023/04/11 02:54:45;;;;;;;17.30;12.17;;;8.90;99.90;;;8.80;66.84;94689.28;5077347;28;20535;-60
2023/04/11 02:57:13;;;;;;;15.10;11.57;;;8.80;99.90;;;8.79;66.65;94679.75;5074375;28;20466;-54
2023/04/11 02:59:40;;;;;;;17.17;11.50;;;8.90;99.90;;;8.81;66.74;94676.97;5078456;28;20750;-61
2023/04/11 03:02:07;;;;;;;15.40;12.27;;;8.80;99.90;;;8.82;66.47;94674.22;5078344;28;20491;-56
2023/04/11 03:04:35;;;;;;;16.23;12.63;;;8.90;99.90;;;8.82;66.57;94674.22;5077180;28;21033;-61
2023/04/11 03:07:03;;;;;;;16.00;11.87;;;8.90;99.90;;;8.82;66.60;94678.66;5078139;28;21387;-56
2023/04/11 03:09:31;;;;;;;20.57;12.67;;;8.90;99.90;;;8.80;66.84;94676.16;5077595;28;20458;-60
2023/04/11 03:11:58;;;;;;;18.40;12.70;;;8.90;99.90;;;8.78;66.73;94678.91;5077917;28;20997;-61
2023/04/11 03:14:25;;;;;;;19.43;12.07;;;8.80;99.90;;;8.78;66.27;94678.91;5077299;28;20860;-61
2023/04/11 03:16:53;;;;;;;13.80;12.00;;;8.90;99.90;;;8.79;66.26;94680.56;5071385;28;20450;-57
2023/04/11 03:19:20;;;;;;;15.10;11.67;;;8.80;99.90;;;8.79;66.66;94680.56;5076454;28;20485;-55
2023/04/11 03:21:47;;;;;;;15.70;12.30;;;8.90;99.90;;;8.79;66.60;94679.75;5076426;28;20459;-56
2023/04/11 03:24:16;;;;;;;17.60;13.40;;;8.80;99.90;;;8.78;66.71;94676.28;5076537;28;21013;-61
2023/04/11 03:26:44;;;;;;;21.00;14.07;;;8.90;99.90;;;8.75;66.73;94684.44;5077062;28;20450;-59
2023/04/11 03:29:11;;;;;;;18.17;13.40;;;8.80;99.90;;;8.75;66.63;94687.06;5075654;28;20495;-61
2023/04/11 03:31:39;;;;;;;17.50;13.00;;;8.80;99.90;;;8.75;66.17;94678.34;5076326;28;20458;-62
2023/04/11 03:34:06;;;;;;;15.90;12.47;;;8.80;99.90;;;8.74;66.44;94687.19;5076214;28;20460;-60
2023/04/11 03:36:34;;;;;;;17.07;12.90;;;8.80;99.90;;;8.74;66.18;94681.94;5073471;28;20530;-60
2023/04/11 03:39:02;;;;;;;16.13;12.00;;;8.80;99.90;;;8.71;66.14;94676.97;5074201;28;20482;-60
2023/04/11 03:41:31;;;;;;;18.67;13.87;;;8.80;99.90;;;8.70;66.57;94678.72;5077844;28;20499;-57
2023/04/11 03:43:59;;;;;;;19.47;13.87;;;8.70;99.90;;;8.70;66.30;94680.53;5071641;28;20448;-56
2023/04/11 03:46:26;;;;;;;20.77;14.13;;;8.80;99.90;;;8.69;66.43;94678.88;5075263;28;20849;-60
2023/04/11 03:48:54;;;;;;;19.57;14.80;;;8.80;99.90;;;8.69;67.22;94684.13;5074002;28;20468;-58
2023/04/11 03:51:21;;;;;;;25.70;18.77;;;8.70;99.90;;;8.72;66.84;94683.84;5075547;28;20451;-66
2023/04/11 03:53:48;;;;;;;20.70;16.70;;;8.80;99.90;;;8.72;66.89;94681.22;5074100;28;20550;-56
2023/04/11 03:56:15;;;;;;;15.60;12.97;;;8.70;99.90;;;8.69;66.55;94679.72;5073690;28;20468;-57
2023/04/11 03:58:44;;;;;;;17.97;12.60;;;8.70;99.90;;;8.71;67.26;94682.22;5075372;28;20535;-57
2023/04/11 04:01:11;;;;;;;19.57;14.43;;;8.70;99.90;;;8.70;66.68;94680.53;5071500;28;20491;-56
2023/04/11 04:03:39;;;;;;;18.70;13.60;;;8.70;99.90;;;8.69;67.56;94676.25;5075287;28;20471;-56
2023/04/11 04:06:07;;;;;;;16.83;12.60;;;8.70;99.90;;;8.71;67.89;94683.03;5076549;28;20454;-57
2023/04/11 04:08:34;;;;;;;20.73;13.90;;;8.80;99.90;;;8.76;67.84;94682.63;5075535;28;20479;-58
2023/04/11 04:11:01;;;;;;;20.10;13.53;;;8.80;99.90;;;8.75;66.81;94686.19;5077853;28;20450;-56
2023/04/11 04:13:28;;;;;;;20.73;14.13;;;8.80;99.90;;;8.73;67.00;94680.28;5075059;28;20523;-63
2023/04/11 04:15:58;;;;;;;19.53;14.07;;;8.80;99.90;;;8.69;67.26;94684.13;5077008;28;20458;-62
2023/04/11 04:18:25;;;;;;;22.33;14.63;;;8.70;99.90;;;8.67;67.47;94688.66;5070971;28;20547;-57
2023/04/11 04:20:53;;;;;;;16.93;12.53;;;8.70;99.90;;;8.68;67.39;94685.91;5076541;28;21021;-58
2023/04/11 04:23:20;;;;;;;21.87;16.37;;;8.70;99.90;;;8.66;67.81;94682.59;5075580;28;20528;-56
2023/04/11 04:25:49;;;;;;;22.17;16.07;;;8.70;99.90;;;8.70;67.05;94676.13;5076818;28;20985;-57
2023/04/11 04:28:21;;;;;;;31.00;15.50;;;8.70;99.90;;;8.71;68.86;94675.16;5076420;28;20485;-58
2023/04/11 04:30:52;;;;;;;18.57;13.87;;;8.70;99.90;;;8.73;67.55;94675.03;5075842;28;20525;-58
2023/04/11 04:33:21;;;;;;;21.43;15.40;;;8.80;99.90;;;8.72;67.14;94676.84;5068698;28;20458;-57
2023/04/11 04:35:50;;;;;;;18.23;14.20;;;8.80;99.90;;;8.69;67.06;94676.25;5073248;28;20443;-56
2023/04/11 04:38:18;;;;;;;22.53;15.77;;;8.80;99.90;;;8.65;67.05;94678.31;5073570;28;20578;-63
2023/04/11 04:40:45;;;;;;;18.77;14.00;;;8.70;99.90;;;8.60;66.71;94676.09;5081374;28;20497;-58
2023/04/11 04:43:17;;;;;;;23.27;14.60;;;8.70;99.90;;;8.55;66.80;94667.81;5082980;28;20497;-63
2023/04/11 04:45:44;;;;;;;19.27;14.37;;;8.60;99.90;;;8.50;66.75;94674.38;5083536;28;20544;-63
2023/04/11 04:48:13;;;;;;;20.87;13.97;;;8.60;99.90;;;8.47;66.83;94672.84;5080774;28;20555;-57
2023/04/11 04:50:42;;;;;;;23.30;15.57;;;8.60;99.90;;;8.43;67.29;94674.06;5083062;28;20512;-57
2023/04/11 04:53:09;;;;;;;21.10;15.10;;;8.50;99.90;;;8.43;66.92;94674.06;5082932;28;20478;-56
2023/04/11 04:55:36;;;;;;;27.63;15.10;;;8.50;99.90;;;8.41;66.70;94671.56;5083183;28;20446;-64
2023/04/11 04:58:04;;;;;;;21.37;15.40;;;8.50;99.90;;;8.41;66.87;94675.97;5076839;28;21108;-57
2023/04/11 05:00:32;;;;;;;29.97;17.80;;;8.50;99.90;;;8.40;67.15;94669.09;5083115;28;20542;-55
2023/04/11 05:02:59;;;;;;;21.87;16.63;;;8.50;99.90;;;8.39;66.72;94668.25;5080911;28;20470;-56
2023/04/11 05:05:28;;;;;;;22.07;15.97;;;8.50;99.90;;;8.38;67.22;94674.47;5083493;28;20450;-64
2023/04/11 05:07:56;;;;;;;24.03;16.03;;;8.50;99.90;;;8.39;66.73;94668.25;5082920;28;20900;-63
2023/04/11 05:10:24;;;;;;;22.10;15.00;;;8.50;99.90;;;8.41;66.96;94671.56;5082219;28;20451;-54
2023/04/11 05:12:53;;;;;;;21.57;16.40;;;8.50;99.90;;;8.45;66.78;94672.16;5082001;28;20472;-56
2023/04/11 05:15:22;;;;;;;18.67;15.17;;;8.50;99.90;;;8.46;66.59;94673.84;5083122;28;20959;-64
2023/04/11 05:17:49;;;;;;;20.97;15.17;;;8.60;99.90;;;8.49;66.92;94670.94;5081514;28;20480;-55
2023/04/11 05:20:17;;;;;;;25.60;15.90;;;8.50;99.90;;;8.52;66.81;94672.47;5081635;28;20550;-56
2023/04/11 05:22:44;;;;;;;19.00;13.90;;;8.60;99.90;;;8.56;66.70;94668.63;5075001;28;21829;-57
2023/04/11 05:25:13;;;;;;;22.53;15.23;;;8.60;99.90;;;8.59;66.17;94676.22;5078737;28;20464;-63
2023/04/11 05:27:40;;;;;;;22.30;15.80;;;8.60;99.90;;;8.64;66.38;94668.78;5080830;28;20474;-63
2023/04/11 05:30:09;;;;;;;23.90;15.47;;;8.70;99.90;;;8.68;66.42;94666.75;5078615;28;20955;-58
2023/04/11 05:32:36;;;;;;;22.50;14.33;;;8.70;99.90;;;8.73;66.73;94672.41;5075773;28;20505;-56
2023/04/11 05:35:04;;;;;;;22.43;15.30;;;8.80;99.90;;;8.78;66.30;94672.81;5075797;28;20443;-57
2023/04/11 05:37:32;;;;;;;18.50;14.07;;;8.80;99.90;;;8.84;66.36;94671.47;5073927;28;20559;-65
2023/04/11 05:39:59;;;;;;;28.97;14.87;;;8.90;99.90;;;8.91;66.09;94662.09;5074306;28;20494;-58
2023/04/11 05:42:28;;;;;;;24.47;14.27;;;8.90;99.90;;;8.96;66.05;94660.72;5079996;28;20470;-63
2023/04/11 05:44:55;;;;;;;16.90;13.43;;;9.00;99.90;;;9.10;65.55;94661.31;5081894;28;20816;-63
2023/04/11 05:47:24;;;;;;;18.97;14.93;;;9.10;99.90;;;9.22;65.67;94654.97;5080779;28;20556;-62
2023/04/11 05:49:51;;;;;;;18.90;13.90;;;9.20;99.90;;;9.36;64.99;94655.50;5078110;28;20462;-63
2023/04/11 05:52:18;;;;;;;14.73;12.27;;;9.30;99.90;;;9.46;64.92;94648.47;5069120;28;20475;-62
2023/04/11 05:54:46;;;;;;;19.63;13.17;;;9.40;99.90;;;9.59;64.56;94656.91;5070073;28;20458;-56
2023/04/11 05:57:13;;;;;;;19.37;14.63;;;9.60;99.90;;;9.74;64.52;94653.84;5074031;28;20465;-55
2023/04/11 05:59:42;;;;;;;18.63;12.30;;;9.70;99.90;;;9.91;64.34;94655.75;5076089;28;20453;-65
2023/04/11 06:02:09;;;;;;;21.83;13.37;;;9.90;99.90;;;10.09;64.27;94652.41;5078059;28;20481;-64
2023/04/11 06:04:36;;;;;;;24.20;14.20;;;10.00;99.90;;;10.26;64.08;94656.94;5078925;28;20450;-57
2023/04/11 06:07:04;;;;;;;19.53;13.40;;;10.20;99.90;;;10.50;63.52;94653.84;5079156;28;20474;-64
2023/04/11 06:09:31;;;;;;;23.43;13.83;;;10.40;99.90;;;10.75;63.62;94649.72;5078927;28;20446;-57
2023/04/11 06:12:00;;;;;;;20.43;13.10;;;10.60;99.90;;;10.98;62.75;94638.75;5078464;28;20478;-64
2023/04/11 06:14:27;;;;;;;15.30;11.93;;;10.90;99.90;;;11.16;61.95;94640.59;5079049;28;20529;-62
2023/04/11 06:16:56;;;;;;;14.27;10.17;;;11.00;99.90;;;11.25;61.12;94639.72;5078469;28;20585;-58
2023/04/11 06:19:23;;;;;;;12.37;10.30;;;11.20;99.50;;;11.38;61.21;94641.97;5078140;28;20462;-64
2023/04/11 06:21:50;;;;;;;12.97;10.40;;;11.30;99.50;;;11.54;60.49;94633.38;5078761;28;20487;-64
2023/04/11 06:24:18;;;;;;;12.53;9.30;;;11.40;99.00;;;11.75;59.47;94633.88;5069658;28;20457;-58
2023/04/11 06:26:45;;;;;;;20.70;11.57;;;11.60;98.30;;;11.90;59.02;94628.91;5077958;28;20479;-64
2023/04/11 06:29:12;;;;;;;15.57;10.63;;;11.80;98.00;;;12.04;59.07;94624.91;5078036;28;20462;-57
2023/04/11 06:31:40;;;;;;;12.10;10.07;;;11.90;98.10;;;12.13;58.72;94631.03;5077174;28;20447;-56
2023/04/11 06:34:09;;;;;;;14.43;10.40;;;12.00;97.70;;;12.08;58.87;94620.97;5077285;28;20853;-58
2023/04/11 06:36:36;;;;;;;12.97;10.23;;;12.00;97.30;;;12.07;58.67;94621.13;5075358;28;20447;-64
2023/04/11 06:39:04;;;;;;;14.20;10.80;;;12.00;97.20;;;12.19;58.58;94623.34;5076217;28;21005;-56
2023/04/11 06:41:31;;;;;;;11.83;10.20;;;12.10;97.40;;;12.43;58.19;94621.00;5076111;28;21150;-57
2023/04/11 06:43:59;;;;;;;12.60;10.30;;;12.30;97.40;;;12.61;57.85;94615.63;5074777;28;20459;-64
2023/04/11 06:46:26;;;;;;;12.23;10.63;;;12.50;97.10;;;12.79;57.97;94619.00;5079846;28;20548;-64
2023/04/11 06:48:54;;;;;;;14.03;11.17;;;12.60;97.00;;;12.90;57.56;94613.47;5078760;28;20469;-63
2023/04/11 06:51:23;;;;;;;13.43;10.63;;;12.80;96.70;;;13.01;57.31;94619.41;5076310;28;20454;-64
2023/04/11 06:53:50;;;;;;;13.23;10.63;;;12.90;96.50;;;13.09;56.80;94622.09;5078251;28;20471;-57
2023/04/11 06:56:18;;;;;;;11.63;9.20;;;13.00;95.90;;;13.16;54.57;94622.25;5076245;28;20454;-64
2023/04/11 06:58:45;;;;;;;15.47;8.83;;;13.00;94.10;;;13.23;55.71;94624.09;5074622;28;20867;-63
2023/04/11 07:01:13;;;;;;;9.30;8.40;;;13.10;95.10;;;13.37;55.39;94614.72;5075681;28;20838;-64
2023/04/11 07:03:40;;;;;;;14.23;10.03;;;13.30;94.60;;;13.60;54.36;94620.19;5076251;28;20470;-64
2023/04/11 07:06:08;;;;;;;10.80;8.50;;;13.40;94.00;;;13.68;53.96;94615.88;5077979;28;20454;-57
2023/04/11 07:08:36;;;;;;;12.03;8.73;;;13.50;93.30;;;13.64;54.17;94623.34;5076686;28;20470;-58
2023/04/11 07:11:04;;;;;;;15.73;9.27;;;13.60;93.50;;;13.57;53.70;94620.53;5076921;28;20477;-56
2023/04/11 07:13:32;;;;;;;16.10;9.10;;;13.50;92.70;;;13.52;54.56;94614.06;5077361;28;20546;-58
2023/04/11 07:15:59;;;;;;;11.50;9.17;;;13.50;93.20;;;13.46;54.48;94612.91;5077705;28;20457;-58
2023/04/11 07:18:26;;;;;;;11.93;8.47;;;13.40;93.10;;;13.47;54.69;94611.94;5077166;28;20485;-63
2023/04/11 07:20:54;;;;;;;12.63;8.80;;;13.40;93.40;;;13.45;54.38;94612.09;5076318;28;20491;-63
2023/04/11 07:23:21;;;;;;;13.10;9.07;;;13.40;93.20;;;13.45;54.43;94614.72;5078353;28;20481;-64
2023/04/11 07:25:50;;;;;;;14.40;9.03;;;13.40;93.20;;;13.41;53.13;94612.59;5077792;28;20537;-63
2023/04/11 07:28:17;;;;;;;11.80;9.50;;;13.40;92.10;;;13.34;54.17;94611.56;5076365;28;20465;-57
2023/04/11 07:30:45;;;;;;;9.93;8.93;;;13.30;92.80;;;13.30;54.15;94600.47;5075122;28;20952;-56
2023/04/11 07:33:12;;;;;;;14.57;8.97;;;13.20;92.70;;;13.32;54.39;94602.97;5077861;28;20524;-55
2023/04/11 07:35:39;;;;;;;15.00;9.00;;;13.20;93.10;;;13.38;54.11;94595.22;5075305;28;20516;-63
2023/04/11 07:38:08;;;;;;;9.43;7.80;;;13.30;92.70;;;13.43;53.92;94597.38;5076067;28;20470;-56
2023/04/11 07:40:35;;;;;;;17.73;8.90;;;13.40;92.30;;;13.52;53.49;94600.88;5076686;28;20485;-60
2023/04/11 07:43:04;;;;;;;10.57;9.00;;;13.40;92.10;;;13.71;54.00;94597.91;5077317;28;20485;-58
2023/04/11 07:45:32;;;;;;;9.23;8.20;;;13.60;92.70;;;13.97;52.33;94587.16;5077330;28;21778;-56
2023/04/11 07:48:00;;;;;;;11.93;8.77;;;13.80;91.50;;;14.21;51.96;94597.84;5075168;28;20475;-63
2023/04/11 07:50:28;;;;;;;12.50;9.30;;;14.10;91.00;;;14.42;52.20;94594.63;5076910;28;20496;-64
2023/04/11 07:52:56;;;;;;;10.00;7.80;;;14.30;91.10;;;14.72;52.32;94597.53;5076904;28;21445;-56
2023/04/11 07:55:23;;;;;;;10.03;8.87;;;14.50;91.20;;;15.01;51.86;94584.50;5076917;28;20484;-63
2023/04/11 07:57:51;;;;;;;11.17;8.13;;;14.80;90.80;;;15.33;48.55;94584.47;5074369;28;20473;-55
2023/04/11 08:00:23;;;;;;;15.53;9.37;;;15.20;85.70;;;15.52;50.40;94581.34;5074702;28;20446;-64
2023/04/11 08:02:51;;;;;;;9.30;8.20;;;15.40;88.20;;;15.56;49.55;94576.50;5075343;28;20482;-63
2023/04/11 08:05:19;;;;;;;9.50;8.20;;;15.50;86.70;;;15.51;50.21;94579.69;5077209;28;20986;-58
2023/04/11 08:07:46;;;;;;;8.93;7.80;;;15.50;87.10;;;15.46;48.67;94570.59;5072920;28;20462;-58
2023/04/11 08:10:13;;;;;;;9.63;7.57;;;15.40;83.80;;;15.32;48.18;94566.91;5076335;28;20475;-55
2023/04/11 08:12:41;;;;;;;8.43;7.63;;;15.30;82.70;;;15.22;49.99;94567.13;5076151;28;20476;-64
2023/04/11 08:15:09;;;;;;;10.60;7.03;;;15.20;85.20;;;15.25;48.95;94566.78;5077352;28;20461;-63
2023/04/11 08:17:39;;;;;;;6.83;6.13;;;15.20;83.60;;;15.39;48.36;94559.91;5075984;28;20497;-56
2023/04/11 08:20:10;;;;;;;8.53;6.30;;;15.30;81.30;;;15.41;47.33;94547.28;5075777;28;20500;-56
2023/04/11 08:22:38;;;;;;;9.37;7.90;;;15.40;79.20;;;15.33;49.28;94563.25;5074456;28;20490;-63
2023/04/11 08:25:08;;;;;;;7.50;6.80;;;15.30;82.60;;;15.30;47.92;94545.88;5076603;28;20453;-63
2023/04/11 08:27:35;;;;;;;11.50;7.20;;;15.30;79.40;;;15.21;48.73;94549.59;5075634;28;20480;-56
2023/04/11 08:30:04;;;;;;;8.20;7.40;;;15.20;80.90;;;15.17;48.97;94546.47;5075357;28;20534;-63
2023/04/11 08:32:32;;;;;;;7.10;6.03;;;15.10;81.20;;;15.09;48.86;94556.28;5072557;28;20479;-62
2023/04/11 08:35:01;;;;;;;8.83;6.40;;;15.00;81.00;;;14.93;48.81;94542.16;5074699;28;20462;-57
2023/04/11 08:37:28;;;;;;;9.03;6.07;;;14.90;80.80;;;14.73;49.05;94549.69;5071429;28;20477;-65
2023/04/11 08:39:56;;;;;;;7.80;7.00;;;14.70;80.60;;;14.67;49.43;94543.28;5070796;28;20447;-58
2023/04/11 08:42:24;;;;;;;7.57;6.87;;;14.60;81.90;;;14.76;48.93;94533.47;5073496;28;20495;-64
2023/04/11 08:44:54;;;;;;;9.10;7.20;;;14.70;80.60;;;14.84;48.95;94535.25;5075888;28;20541;-57
2023/04/11 08:47:21;;;;;;;7.80;6.50;;;14.70;81.10;;;14.96;49.47;94533.84;5072012;28;20498;-56
2023/04/11 08:49:49;;;;;;;7.13;6.30;;;14.90;82.30;;;15.15;48.30;94519.34;5076040;28;20513;-63
2023/04/11 08:52:18;;;;;;;11.03;7.80;;;15.00;80.60;;;15.26;48.17;94523.41;5077472;28;20574;-57
2023/04/11 08:54:45;;;;;;;9.27;7.40;;;15.20;80.20;;;15.32;48.50;94525.34;5077485;28;20458;-64
2023/04/11 08:57:26;;;;;;;8.40;7.57;;;15.20;80.60;;;15.44;47.93;94520.44;5075460;28;20839;-63
2023/04/11 08:59:54;;;;;;;8.73;7.60;;;15.30;79.30;;;15.48;47.71;94519.09;5076468;28;20794;-56
2023/04/11 09:02:21;;;;;;;7.10;6.40;;;15.40;79.00;;;15.46;47.78;94520.25;5075868;28;20486;-63
2023/04/11 09:04:50;;;;;;;7.10;6.40;;;15.40;78.10;;;15.47;47.54;94508.66;5074784;28;20918;-57
2023/04/11 09:07:19;;;;;;;12.53;7.13;;;15.40;78.20;;;15.48;45.91;94510.31;5075181;28;20462;-57
2023/04/11 09:09:46;;;;;;;7.07;6.40;;;15.40;75.00;;;15.65;47.64;94511.00;5072530;28;20453;-63
2023/04/11 09:12:13;;;;;;;13.57;8.20;;;15.50;78.30;;;15.90;45.42;94504.47;5075705;28;20807;-64
2023/04/11 09:14:41;;;;;;;8.47;7.57;;;15.70;74.10;;;16.02;46.23;94504.84;5075103;28;20528;-63
2023/04/11 09:17:12;;;;;;;9.57;7.40;;;15.90;75.50;;;16.15;46.30;94498.06;5075380;28;20479;-56
2023/04/11 09:19:40;;;;;;;12.90;7.57;;;16.00;76.40;;;16.25;45.81;94491.50;5075852;28;20867;-58
2023/04/11 09:22:08;;;;;;;9.73;8.30;;;16.10;74.60;;;16.31;44.63;94492.56;5074234;28;20590;-59
2023/04/11 09:24:37;;;;;;;8.57;7.77;;;16.10;71.80;;;16.22;44.71;94489.19;5074204;28;20454;-64
2023/04/11 09:27:11;;;;;;;8.90;7.97;;;16.10;71.80;;;16.17;45.00;94488.09;5071383;28;20467;-64
2023/04/11 09:29:40;;;;;;;8.53;7.63;;;16.10;71.60;;;16.09;45.55;94483.72;5079182;28;20859;-57
2023/04/11 09:32:07;;;;;;;7.77;7.07;;;16.10;72.10;;;16.06;45.56;94482.22;5079246;28;20856;-56
2023/04/11 09:34:37;;;;;;;10.63;9.00;;;16.00;72.30;;;15.98;45.83;94478.88;5081249;28;20441;-64
2023/04/11 09:37:05;;;;;;;8.73;7.23;;;15.90;73.30;;;15.85;45.78;94475.03;5075571;28;20552;-64
2023/04/11 09:39:32;;;;;;;8.07;7.23;;;15.80;72.60;;;15.75;45.86;94477.91;5079801;28;20873;-55
2023/04/11 09:42:02;;;;;;;10.87;8.97;;;15.70;72.40;;;15.73;46.62;94466.66;5079228;28;21018;-57
2023/04/11 09:44:36;;;;;;;10.60;7.70;;;15.60;73.60;;;15.79;45.50;94464.31;5079345;28;20454;-57
2023/04/11 09:47:04;;;;;;;9.63;7.43;;;15.60;72.50;;;15.85;46.47;94458.25;5070280;28;20470;-55
2023/04/11 09:49:33;;;;;;;8.70;7.80;;;15.70;73.70;;;15.82;44.35;94451.50;5079366;28;20446;-60
2023/04/11 09:52:00;;;;;;;9.23;7.60;;;15.70;69.80;;;15.64;44.33;94438.56;5079060;28;20467;-56
2023/04/11 09:54:28;;;;;;;8.10;7.30;;;15.60;69.70;;;15.61;45.14;94436.28;5079424;28;20450;-56
2023/04/11 09:56:56;;;;;;;8.03;7.30;;;15.60;70.60;;;15.68;45.72;94442.50;5074380;28;20471;-63
2023/04/11 09:59:25;;;;;;;11.40;8.43;;;15.60;71.60;;;15.73;45.85;94437.47;5078340;28;20962;-63
2023/04/11 10:01:52;;;;;;;8.97;7.87;;;15.60;71.50;;;15.72;44.63;94430.56;5078981;28;20489;-64
2023/04/11 10:04:21;;;;;;;8.70;7.83;;;15.60;69.80;;;15.72;45.20;94433.19;5072918;28;20466;-56
2023/04/11 10:07:00;;;;;;;9.10;8.20;;;15.70;70.60;;;15.88;45.21;94436.69;5079516;28;20443;-63
2023/04/11 10:09:28;;;;;;;11.80;8.17;;;15.70;70.70;;;16.04;43.83;94425.88;5075525;28;20450;-64
2023/04/11 10:11:55;;;;;;;9.43;8.23;;;15.90;68.90;;;16.11;44.82;94420.66;5078384;28;20552;-56
2023/04/11 10:14:46;;;;;;;10.67;8.33;;;16.00;70.00;;;16.21;44.44;94420.41;5078474;28;20500;-57
2023/04/11 10:17:15;;;;;;;8.13;7.00;;;16.00;70.00;;;16.35;43.58;94416.88;5076527;28;21021;-56
2023/04/11 10:19:43;;;;;;;10.90;8.73;;;16.20;67.80;;;16.52;43.68;94411.34;5074122;28;20569;-58
2023/04/11 10:22:11;;;;;;;8.13;7.40;;;16.30;67.40;;;16.65;43.94;94411.47;5078522;28;20971;-57
2023/04/11 10:24:38;;;;;;;17.07;9.50;;;16.50;68.80;;;16.79;43.32;94407.13;5078487;28;20446;-64